NKS107 KSAN-MMSD
Flight info
| Callsign | NKS107 |
|---|---|
| Flight time | 1h 53m |
| Altitude | 35000 |
| Route | ZZOOO4 CENZA DCT TIJ UT6 IMUSU UT25 LTO/N0362F170 V4 ENEKO ENEKO1A |
| Aircraft | A321/M-SDE3FGHIRWY/LB1 |
Departure
| Time | 2026-04-22 04:08 |
|---|---|
| Airport | San Diego International Airport (KSAN) |
Arrival
| Time | 2026-04-22 06:01 |
|---|---|
| Airport | Los Cabos International Airport (MMSD) |
| Time | Latitude | Longitude | Altitude | Speed | Heading |
|---|---|---|---|---|---|
| 2026-04-22 03:28 | 32.73380 | -117.19856 | 20 ft | 0 kts | 177° |
| 2026-04-22 03:56 | 32.73389 | -117.19857 | 23 ft | 4 kts | 177° |
| 2026-04-22 03:57 | 32.73411 | -117.19858 | 21 ft | 3 kts | 177° |
| 2026-04-22 03:57 | 32.73437 | -117.19862 | 23 ft | 4 kts | 162° |
| 2026-04-22 03:57 | 32.73461 | -117.19875 | 26 ft | 4 kts | 140° |
| 2026-04-22 03:57 | 32.73479 | -117.19898 | 25 ft | 4 kts | 117° |
| 2026-04-22 03:58 | 32.73488 | -117.19928 | 25 ft | 4 kts | 104° |
| 2026-04-22 03:58 | 32.73494 | -117.19956 | 18 ft | 4 kts | 106° |
| 2026-04-22 03:58 | 32.73498 | -117.19970 | 19 ft | 0 kts | 106° |
| 2026-04-22 04:01 | 32.73494 | -117.19956 | 18 ft | 6 kts | 106° |
| 2026-04-22 04:01 | 32.73477 | -117.19887 | 23 ft | 10 kts | 106° |
| 2026-04-22 04:02 | 32.73457 | -117.19801 | 24 ft | 10 kts | 105° |
| 2026-04-22 04:02 | 32.73431 | -117.19694 | 23 ft | 16 kts | 105° |
| 2026-04-22 04:02 | 32.73400 | -117.19566 | 24 ft | 16 kts | 106° |
| 2026-04-22 04:02 | 32.73370 | -117.19442 | 24 ft | 16 kts | 106° |
| 2026-04-22 04:03 | 32.73338 | -117.19314 | 20 ft | 17 kts | 107° |
| 2026-04-22 04:03 | 32.73305 | -117.19179 | 21 ft | 17 kts | 106° |
| 2026-04-22 04:03 | 32.73275 | -117.19054 | 22 ft | 15 kts | 105° |
| 2026-04-22 04:03 | 32.73247 | -117.18936 | 22 ft | 15 kts | 106° |
| 2026-04-22 04:04 | 32.73218 | -117.18819 | 23 ft | 17 kts | 106° |
| 2026-04-22 04:04 | 32.73184 | -117.18679 | 24 ft | 20 kts | 106° |
| 2026-04-22 04:04 | 32.73144 | -117.18509 | 23 ft | 22 kts | 105° |
| 2026-04-22 04:04 | 32.73101 | -117.18332 | 23 ft | 22 kts | 106° |
| 2026-04-22 04:05 | 32.73057 | -117.18150 | 20 ft | 24 kts | 106° |
| 2026-04-22 04:05 | 32.73011 | -117.17967 | 19 ft | 20 kts | 106° |
| 2026-04-22 04:05 | 32.72973 | -117.17805 | 16 ft | 18 kts | 107° |
| 2026-04-22 04:05 | 32.72949 | -117.17692 | 17 ft | 10 kts | 88° |
| 2026-04-22 04:06 | 32.72966 | -117.17620 | 19 ft | 8 kts | 71° |
| 2026-04-22 04:06 | 32.73009 | -117.17565 | 20 ft | 10 kts | 7° |
| 2026-04-22 04:06 | 32.73031 | -117.17616 | 19 ft | 9 kts | 283° |
| 2026-04-22 04:06 | 32.73033 | -117.17626 | 19 ft | 1 kts | 284° |
| 2026-04-22 04:07 | 32.73037 | -117.17642 | 19 ft | 0 kts | 285° |
| 2026-04-22 04:07 | 32.73057 | -117.17730 | 18 ft | 39 kts | 285° |
| 2026-04-22 04:07 | 32.73199 | -117.18315 | 22 ft | 106 kts | 286° |
| 2026-04-22 04:07 | 32.73457 | -117.19377 | 28 ft | 159 kts | 285° |
| 2026-04-22 04:08 | 32.73780 | -117.20692 | 525 ft | 165 kts | 287° |
| 2026-04-22 04:08 | 32.74097 | -117.21987 | 1291 ft | 163 kts | 286° |
| 2026-04-22 04:08 | 32.74423 | -117.23355 | 1555 ft | 181 kts | 286° |
| 2026-04-22 04:08 | 32.74776 | -117.24858 | 1782 ft | 196 kts | 286° |
| 2026-04-22 04:09 | 32.75173 | -117.26500 | 1898 ft | 220 kts | 286° |
| 2026-04-22 04:09 | 32.75610 | -117.28290 | 2470 ft | 226 kts | 286° |
| 2026-04-22 04:09 | 32.76038 | -117.30063 | 3194 ft | 227 kts | 285° |
| 2026-04-22 04:09 | 32.76471 | -117.31891 | 3883 ft | 232 kts | 281° |
| 2026-04-22 04:10 | 32.76352 | -117.33770 | 4552 ft | 234 kts | 244° |
| 2026-04-22 04:10 | 32.75226 | -117.35143 | 5230 ft | 240 kts | 206° |
| 2026-04-22 04:10 | 32.73572 | -117.35385 | 5919 ft | 249 kts | 169° |
| 2026-04-22 04:10 | 32.72026 | -117.34429 | 6645 ft | 256 kts | 146° |
| 2026-04-22 04:11 | 32.70693 | -117.33029 | 7283 ft | 262 kts | 140° |
| 2026-04-22 04:11 | 32.69393 | -117.31483 | 7917 ft | 266 kts | 139° |
| 2026-04-22 04:11 | 32.68079 | -117.29918 | 8564 ft | 269 kts | 140° |
| 2026-04-22 04:11 | 32.66722 | -117.28365 | 9209 ft | 273 kts | 142° |
| 2026-04-22 04:12 | 32.65316 | -117.26843 | 9865 ft | 275 kts | 143° |
| 2026-04-22 04:12 | 32.63866 | -117.25342 | 10453 ft | 279 kts | 143° |
| 2026-04-22 04:12 | 32.62649 | -117.23476 | 10869 ft | 298 kts | 120° |
| 2026-04-22 04:12 | 32.61939 | -117.21068 | 11117 ft | 319 kts | 110° |
| 2026-04-22 04:13 | 32.61243 | -117.18488 | 11308 ft | 338 kts | 112° |
| 2026-04-22 04:13 | 32.60442 | -117.15787 | 11501 ft | 356 kts | 113° |
| 2026-04-22 04:13 | 32.59573 | -117.12976 | 11830 ft | 369 kts | 113° |
| 2026-04-22 04:13 | 32.58695 | -117.10124 | 12248 ft | 378 kts | 113° |
| 2026-04-22 04:14 | 32.57791 | -117.07163 | 12759 ft | 383 kts | 113° |
| 2026-04-22 04:14 | 32.56864 | -117.04195 | 13448 ft | 384 kts | 114° |
| 2026-04-22 04:14 | 32.55909 | -117.01229 | 14071 ft | 387 kts | 114° |
| 2026-04-22 04:14 | 32.54921 | -116.98244 | 14591 ft | 390 kts | 118° |
| 2026-04-22 04:15 | 32.53570 | -116.95471 | 15004 ft | 389 kts | 130° |
| 2026-04-22 04:15 | 32.51787 | -116.93094 | 15087 ft | 383 kts | 142° |
| 2026-04-22 04:15 | 32.49727 | -116.91124 | 15078 ft | 380 kts | 147° |
| 2026-04-22 04:15 | 32.47673 | -116.89225 | 15033 ft | 380 kts | 146° |
| 2026-04-22 04:16 | 32.45618 | -116.87263 | 15044 ft | 381 kts | 145° |
| 2026-04-22 04:16 | 32.41505 | -116.83243 | 16181 ft | 386 kts | 145° |
| 2026-04-22 04:16 | 32.39427 | -116.81224 | 16784 ft | 387 kts | 145° |
| 2026-04-22 04:17 | 32.37328 | -116.79203 | 17316 ft | 390 kts | 146° |
| 2026-04-22 04:17 | 32.35201 | -116.77181 | 17839 ft | 394 kts | 146° |
| 2026-04-22 04:17 | 32.33066 | -116.75143 | 18406 ft | 396 kts | 146° |
| 2026-04-22 04:17 | 32.30920 | -116.73083 | 18872 ft | 399 kts | 146° |
| 2026-04-22 04:18 | 32.28760 | -116.71008 | 19359 ft | 401 kts | 146° |
| 2026-04-22 04:18 | 32.26615 | -116.68946 | 19823 ft | 404 kts | 146° |
| 2026-04-22 04:18 | 32.24425 | -116.66847 | 20310 ft | 407 kts | 146° |
| 2026-04-22 04:18 | 32.22217 | -116.64733 | 20786 ft | 410 kts | 146° |
| 2026-04-22 04:19 | 32.19999 | -116.62612 | 21262 ft | 412 kts | 146° |
| 2026-04-22 04:19 | 32.17758 | -116.60472 | 21717 ft | 415 kts | 146° |
| 2026-04-22 04:19 | 32.15504 | -116.58325 | 22166 ft | 418 kts | 146° |
| 2026-04-22 04:19 | 32.13245 | -116.56148 | 22619 ft | 421 kts | 145° |
| 2026-04-22 04:20 | 32.10990 | -116.53920 | 23049 ft | 424 kts | 144° |
| 2026-04-22 04:20 | 32.08737 | -116.51663 | 23459 ft | 427 kts | 144° |
| 2026-04-22 04:20 | 32.06468 | -116.49380 | 23832 ft | 430 kts | 144° |
| 2026-04-22 04:20 | 32.04189 | -116.47090 | 24177 ft | 432 kts | 144° |
| 2026-04-22 04:21 | 32.01921 | -116.44819 | 24499 ft | 434 kts | 144° |
| 2026-04-22 04:21 | 31.99608 | -116.42511 | 24840 ft | 437 kts | 144° |
| 2026-04-22 04:21 | 31.97281 | -116.40199 | 25186 ft | 439 kts | 144° |
| 2026-04-22 04:21 | 31.94940 | -116.37881 | 25532 ft | 441 kts | 145° |
| 2026-04-22 04:22 | 31.92582 | -116.35551 | 25863 ft | 443 kts | 144° |
| 2026-04-22 04:22 | 31.90214 | -116.33210 | 26191 ft | 445 kts | 144° |
| 2026-04-22 04:22 | 31.87838 | -116.30860 | 26504 ft | 448 kts | 144° |
| 2026-04-22 04:22 | 31.85451 | -116.28496 | 26819 ft | 450 kts | 144° |
| 2026-04-22 04:23 | 31.83081 | -116.26151 | 27119 ft | 452 kts | 144° |
| 2026-04-22 04:23 | 31.80665 | -116.23767 | 27423 ft | 455 kts | 145° |
| 2026-04-22 04:23 | 31.78234 | -116.21379 | 27735 ft | 456 kts | 146° |
| 2026-04-22 04:23 | 31.75622 | -116.19300 | 28032 ft | 452 kts | 156° |
| 2026-04-22 04:24 | 31.72782 | -116.17765 | 28320 ft | 447 kts | 166° |
| 2026-04-22 04:24 | 31.69801 | -116.16808 | 28605 ft | 443 kts | 175° |
| 2026-04-22 04:24 | 31.66755 | -116.16242 | 28877 ft | 444 kts | 176° |
| 2026-04-22 04:24 | 31.63697 | -116.15682 | 29145 ft | 446 kts | 176° |
| 2026-04-22 04:25 | 31.60624 | -116.15116 | 29430 ft | 448 kts | 176° |
| 2026-04-22 04:25 | 31.57538 | -116.14543 | 29710 ft | 450 kts | 176° |
| 2026-04-22 04:25 | 31.54438 | -116.13964 | 29989 ft | 453 kts | 176° |
| 2026-04-22 04:25 | 31.51362 | -116.13388 | 30259 ft | 455 kts | 176° |
| 2026-04-22 04:26 | 31.48224 | -116.12801 | 30509 ft | 457 kts | 176° |
| 2026-04-22 04:26 | 31.45077 | -116.12215 | 30753 ft | 459 kts | 176° |
| 2026-04-22 04:26 | 31.41928 | -116.11629 | 31096 ft | 458 kts | 176° |
| 2026-04-22 04:26 | 31.38785 | -116.11043 | 31468 ft | 456 kts | 175° |
| 2026-04-22 04:27 | 31.35797 | -116.10485 | 31794 ft | 455 kts | 175° |
| 2026-04-22 04:27 | 31.32671 | -116.09904 | 32144 ft | 454 kts | 175° |
| 2026-04-22 04:27 | 31.29554 | -116.09328 | 32497 ft | 453 kts | 175° |
| 2026-04-22 04:27 | 31.26445 | -116.08757 | 32846 ft | 452 kts | 175° |
| 2026-04-22 04:28 | 31.23383 | -116.08194 | 33178 ft | 451 kts | 175° |
| 2026-04-22 04:28 | 31.20291 | -116.07624 | 33511 ft | 450 kts | 175° |
| 2026-04-22 04:28 | 31.17205 | -116.07056 | 33865 ft | 448 kts | 175° |
| 2026-04-22 04:28 | 31.14122 | -116.06486 | 34206 ft | 447 kts | 175° |
| 2026-04-22 04:29 | 31.11055 | -116.05918 | 34491 ft | 446 kts | 175° |
| 2026-04-22 04:29 | 31.07997 | -116.05352 | 34759 ft | 445 kts | 175° |
| 2026-04-22 04:29 | 31.04935 | -116.04786 | 35025 ft | 445 kts | 175° |
| 2026-04-22 04:29 | 31.01915 | -116.04232 | 35127 ft | 445 kts | 175° |
| 2026-04-22 04:30 | 30.98867 | -116.03675 | 35151 ft | 443 kts | 175° |
| 2026-04-22 04:30 | 30.92783 | -116.02559 | 35148 ft | 442 kts | 175° |
| 2026-04-22 04:31 | 30.86713 | -116.01443 | 35145 ft | 442 kts | 175° |
| 2026-04-22 04:31 | 30.80633 | -116.00334 | 35144 ft | 442 kts | 175° |
| 2026-04-22 04:32 | 30.74559 | -115.99226 | 35146 ft | 442 kts | 175° |
| 2026-04-22 04:32 | 30.68519 | -115.98117 | 35141 ft | 443 kts | 175° |
| 2026-04-22 04:33 | 30.62427 | -115.97004 | 35143 ft | 443 kts | 176° |
| 2026-04-22 04:33 | 30.56356 | -115.95722 | 35144 ft | 448 kts | 168° |
| 2026-04-22 04:34 | 30.50737 | -115.92562 | 35140 ft | 459 kts | 150° |
| 2026-04-22 04:34 | 30.45454 | -115.88381 | 35134 ft | 460 kts | 150° |
| 2026-04-22 04:35 | 30.40158 | -115.84211 | 35133 ft | 461 kts | 150° |
| 2026-04-22 04:35 | 30.34849 | -115.80027 | 35141 ft | 462 kts | 150° |
| 2026-04-22 04:36 | 30.29536 | -115.75841 | 35141 ft | 462 kts | 150° |
| 2026-04-22 04:36 | 30.24257 | -115.71690 | 35148 ft | 462 kts | 150° |
| 2026-04-22 04:37 | 30.18943 | -115.67513 | 35145 ft | 462 kts | 151° |
| 2026-04-22 04:37 | 30.13633 | -115.63354 | 35147 ft | 461 kts | 151° |
| 2026-04-22 04:38 | 30.08323 | -115.59199 | 35141 ft | 461 kts | 151° |
| 2026-04-22 04:38 | 30.03015 | -115.55055 | 35141 ft | 460 kts | 151° |
| 2026-04-22 04:39 | 29.97748 | -115.50947 | 35137 ft | 460 kts | 151° |
| 2026-04-22 04:39 | 29.92445 | -115.46817 | 35142 ft | 460 kts | 151° |
| 2026-04-22 04:40 | 29.87144 | -115.42673 | 35129 ft | 460 kts | 151° |
| 2026-04-22 04:40 | 29.81837 | -115.38535 | 35132 ft | 461 kts | 152° |
| 2026-04-22 04:41 | 29.76522 | -115.34412 | 35134 ft | 460 kts | 152° |
| 2026-04-22 04:41 | 29.71246 | -115.30324 | 35128 ft | 461 kts | 152° |
| 2026-04-22 04:42 | 29.66051 | -115.26305 | 35125 ft | 461 kts | 152° |
| 2026-04-22 04:42 | 29.60730 | -115.22182 | 35127 ft | 461 kts | 152° |
| 2026-04-22 04:43 | 29.55409 | -115.18063 | 35116 ft | 462 kts | 152° |
| 2026-04-22 04:43 | 29.50111 | -115.13980 | 35121 ft | 462 kts | 152° |
| 2026-04-22 04:44 | 29.44778 | -115.09867 | 35122 ft | 462 kts | 152° |
| 2026-04-22 04:44 | 29.39444 | -115.05758 | 35121 ft | 462 kts | 152° |
| 2026-04-22 04:45 | 29.34101 | -115.01657 | 35116 ft | 462 kts | 153° |
| 2026-04-22 04:45 | 29.28800 | -114.97594 | 35121 ft | 462 kts | 153° |
| 2026-04-22 04:46 | 29.23460 | -114.93503 | 35120 ft | 462 kts | 153° |
| 2026-04-22 04:46 | 29.18123 | -114.89402 | 35120 ft | 462 kts | 153° |
| 2026-04-22 04:47 | 29.12784 | -114.85316 | 35120 ft | 462 kts | 153° |
| 2026-04-22 04:47 | 29.07575 | -114.81343 | 35121 ft | 461 kts | 153° |
| 2026-04-22 04:48 | 29.02276 | -114.77302 | 35122 ft | 461 kts | 153° |
| 2026-04-22 04:48 | 28.96939 | -114.73231 | 35126 ft | 461 kts | 153° |
| 2026-04-22 04:49 | 28.91612 | -114.69177 | 35127 ft | 460 kts | 154° |
| 2026-04-22 04:49 | 28.86280 | -114.65127 | 35124 ft | 460 kts | 154° |
| 2026-04-22 04:50 | 28.80995 | -114.61114 | 35121 ft | 459 kts | 154° |
| 2026-04-22 04:50 | 28.75671 | -114.57080 | 35124 ft | 459 kts | 154° |
| 2026-04-22 04:51 | 28.70351 | -114.53052 | 35121 ft | 459 kts | 154° |
| 2026-04-22 04:51 | 28.65034 | -114.49028 | 35119 ft | 459 kts | 154° |
| 2026-04-22 04:52 | 28.60620 | -114.45688 | 35119 ft | 459 kts | 154° |
| 2026-04-22 04:52 | 28.54436 | -114.41023 | 35127 ft | 459 kts | 154° |
| 2026-04-22 04:53 | 28.50019 | -114.37691 | 35123 ft | 459 kts | 154° |
| 2026-04-22 04:53 | 28.44703 | -114.33687 | 35128 ft | 458 kts | 154° |
| 2026-04-22 04:54 | 28.39380 | -114.29693 | 35128 ft | 458 kts | 155° |
| 2026-04-22 04:54 | 28.34058 | -114.25708 | 35130 ft | 458 kts | 155° |
| 2026-04-22 04:55 | 28.28738 | -114.21717 | 35133 ft | 458 kts | 154° |
| 2026-04-22 04:55 | 28.23452 | -114.17752 | 35132 ft | 458 kts | 155° |
| 2026-04-22 04:56 | 28.18132 | -114.13768 | 35132 ft | 458 kts | 154° |
| 2026-04-22 04:56 | 28.12813 | -114.09782 | 35130 ft | 458 kts | 154° |
| 2026-04-22 04:57 | 28.06628 | -114.05166 | 35130 ft | 458 kts | 155° |
| 2026-04-22 04:57 | 28.02346 | -114.01569 | 35131 ft | 469 kts | 143° |
| 2026-04-22 04:58 | 27.98005 | -113.95932 | 35131 ft | 477 kts | 137° |
| 2026-04-22 04:58 | 27.93742 | -113.90189 | 35126 ft | 477 kts | 137° |
| 2026-04-22 04:59 | 27.89467 | -113.84455 | 35135 ft | 476 kts | 137° |
| 2026-04-22 04:59 | 27.85221 | -113.78753 | 35135 ft | 477 kts | 137° |
| 2026-04-22 05:00 | 27.80945 | -113.73029 | 35128 ft | 476 kts | 137° |
| 2026-04-22 05:00 | 27.76664 | -113.67316 | 35129 ft | 476 kts | 137° |
| 2026-04-22 05:01 | 27.72415 | -113.61640 | 35130 ft | 477 kts | 137° |
| 2026-04-22 05:01 | 27.68139 | -113.55925 | 35135 ft | 477 kts | 137° |
| 2026-04-22 05:02 | 27.63849 | -113.50218 | 35133 ft | 476 kts | 137° |
| 2026-04-22 05:02 | 27.59561 | -113.44522 | 35129 ft | 476 kts | 137° |
| 2026-04-22 05:03 | 27.55305 | -113.38869 | 35128 ft | 476 kts | 137° |
| 2026-04-22 05:03 | 27.51026 | -113.33179 | 35128 ft | 476 kts | 137° |
| 2026-04-22 05:04 | 27.46741 | -113.27495 | 35119 ft | 475 kts | 138° |
| 2026-04-22 05:04 | 27.42451 | -113.21827 | 35108 ft | 476 kts | 138° |
| 2026-04-22 05:05 | 27.38186 | -113.16203 | 35095 ft | 476 kts | 138° |
| 2026-04-22 05:05 | 27.33887 | -113.10530 | 35092 ft | 476 kts | 137° |
| 2026-04-22 05:06 | 27.29585 | -113.04858 | 35089 ft | 477 kts | 137° |
| 2026-04-22 05:06 | 27.25280 | -112.99183 | 35079 ft | 477 kts | 138° |
| 2026-04-22 05:07 | 27.20958 | -112.93512 | 35092 ft | 478 kts | 138° |
| 2026-04-22 05:07 | 27.16666 | -112.87872 | 35094 ft | 479 kts | 137° |
| 2026-04-22 05:08 | 27.12338 | -112.82190 | 35087 ft | 479 kts | 138° |
| 2026-04-22 05:08 | 27.08001 | -112.76516 | 35078 ft | 479 kts | 137° |
| 2026-04-22 05:09 | 27.03660 | -112.70840 | 35087 ft | 479 kts | 137° |
| 2026-04-22 05:09 | 26.99346 | -112.65203 | 35082 ft | 480 kts | 137° |
| 2026-04-22 05:10 | 26.94996 | -112.59527 | 35082 ft | 480 kts | 137° |
| 2026-04-22 05:10 | 26.90632 | -112.53852 | 35083 ft | 481 kts | 137° |
| 2026-04-22 05:11 | 26.86266 | -112.48176 | 35077 ft | 481 kts | 137° |
| 2026-04-22 05:11 | 26.81903 | -112.42491 | 35059 ft | 481 kts | 137° |
| 2026-04-22 05:12 | 26.77548 | -112.36832 | 35070 ft | 483 kts | 137° |
| 2026-04-22 05:12 | 26.73156 | -112.31145 | 35067 ft | 483 kts | 137° |
| 2026-04-22 05:13 | 26.68757 | -112.25454 | 35076 ft | 484 kts | 137° |
| 2026-04-22 05:13 | 26.64355 | -112.19769 | 35071 ft | 484 kts | 137° |
| 2026-04-22 05:14 | 26.59973 | -112.14124 | 35068 ft | 484 kts | 137° |
| 2026-04-22 05:14 | 26.55560 | -112.08434 | 35066 ft | 484 kts | 137° |
| 2026-04-22 05:15 | 26.51154 | -112.02747 | 35064 ft | 484 kts | 137° |
| 2026-04-22 05:15 | 26.46738 | -111.97070 | 35059 ft | 484 kts | 137° |
| 2026-04-22 05:16 | 26.42344 | -111.91429 | 35063 ft | 485 kts | 137° |
| 2026-04-22 05:16 | 26.37925 | -111.85750 | 35068 ft | 485 kts | 137° |
| 2026-04-22 05:17 | 26.33500 | -111.80071 | 35064 ft | 485 kts | 137° |
| 2026-04-22 05:17 | 26.29070 | -111.74412 | 35068 ft | 485 kts | 137° |
| 2026-04-22 05:18 | 26.22641 | -111.66223 | 35067 ft | 485 kts | 137° |
| 2026-04-22 05:18 | 26.18202 | -111.60554 | 35068 ft | 486 kts | 137° |
| 2026-04-22 05:19 | 26.13766 | -111.54892 | 35064 ft | 485 kts | 137° |
| 2026-04-22 05:19 | 26.09353 | -111.49280 | 35063 ft | 485 kts | 137° |
| 2026-04-22 05:20 | 26.04905 | -111.43639 | 35067 ft | 485 kts | 137° |
| 2026-04-22 05:20 | 26.00460 | -111.37997 | 35061 ft | 485 kts | 137° |
| 2026-04-22 05:21 | 25.95993 | -111.32390 | 35050 ft | 483 kts | 139° |
| 2026-04-22 05:21 | 25.91416 | -111.27001 | 35043 ft | 483 kts | 140° |
| 2026-04-22 05:22 | 25.86745 | -111.21635 | 35039 ft | 483 kts | 140° |
| 2026-04-22 05:22 | 25.82099 | -111.16224 | 35037 ft | 485 kts | 139° |
| 2026-04-22 05:23 | 25.77469 | -111.10775 | 35034 ft | 486 kts | 139° |
| 2026-04-22 05:23 | 25.72861 | -111.05362 | 35033 ft | 486 kts | 139° |
| 2026-04-22 05:24 | 25.68204 | -110.99919 | 35027 ft | 487 kts | 139° |
| 2026-04-22 05:24 | 25.63534 | -110.94469 | 35032 ft | 488 kts | 139° |
| 2026-04-22 05:25 | 25.58857 | -110.89012 | 35028 ft | 488 kts | 139° |
| 2026-04-22 05:25 | 25.54206 | -110.83590 | 35017 ft | 489 kts | 139° |
| 2026-04-22 05:26 | 25.49516 | -110.78126 | 35021 ft | 490 kts | 139° |
| 2026-04-22 05:26 | 25.44813 | -110.72664 | 35026 ft | 491 kts | 139° |
| 2026-04-22 05:27 | 25.40099 | -110.67193 | 35033 ft | 491 kts | 139° |
| 2026-04-22 05:27 | 25.35386 | -110.61723 | 35027 ft | 491 kts | 139° |
| 2026-04-22 05:28 | 25.30697 | -110.56293 | 35034 ft | 492 kts | 139° |
| 2026-04-22 05:28 | 25.25971 | -110.50825 | 35029 ft | 492 kts | 139° |
| 2026-04-22 05:29 | 25.21240 | -110.45360 | 35033 ft | 492 kts | 139° |
| 2026-04-22 05:29 | 25.16494 | -110.39896 | 35033 ft | 493 kts | 139° |
| 2026-04-22 05:30 | 25.11783 | -110.34467 | 35037 ft | 493 kts | 139° |
| 2026-04-22 05:30 | 25.07036 | -110.28992 | 35035 ft | 494 kts | 139° |
| 2026-04-22 05:31 | 25.02287 | -110.23518 | 35034 ft | 494 kts | 139° |
| 2026-04-22 05:31 | 24.97528 | -110.18051 | 35035 ft | 494 kts | 139° |
| 2026-04-22 05:32 | 24.95267 | -110.15461 | 34881 ft | 491 kts | 139° |
| 2026-04-22 05:32 | 24.93057 | -110.12929 | 34656 ft | 485 kts | 139° |
| 2026-04-22 05:32 | 24.90726 | -110.10255 | 34426 ft | 482 kts | 139° |
| 2026-04-22 05:32 | 24.88409 | -110.07600 | 34196 ft | 480 kts | 139° |
| 2026-04-22 05:33 | 24.86098 | -110.04955 | 33957 ft | 478 kts | 139° |
| 2026-04-22 05:33 | 24.83795 | -110.02327 | 33686 ft | 476 kts | 139° |
| 2026-04-22 05:33 | 24.81508 | -109.99716 | 33300 ft | 473 kts | 139° |
| 2026-04-22 05:33 | 24.79233 | -109.97116 | 32771 ft | 471 kts | 139° |
| 2026-04-22 05:34 | 24.76965 | -109.94523 | 32247 ft | 469 kts | 139° |
| 2026-04-22 05:34 | 24.74701 | -109.91938 | 31722 ft | 468 kts | 138° |
| 2026-04-22 05:34 | 24.72480 | -109.89401 | 31217 ft | 467 kts | 138° |
| 2026-04-22 05:34 | 24.70233 | -109.86834 | 30698 ft | 465 kts | 138° |
| 2026-04-22 05:35 | 24.67988 | -109.84275 | 30193 ft | 464 kts | 138° |
| 2026-04-22 05:35 | 24.65749 | -109.81729 | 29625 ft | 462 kts | 138° |
| 2026-04-22 05:35 | 24.63526 | -109.79201 | 29159 ft | 458 kts | 138° |
| 2026-04-22 05:35 | 24.61322 | -109.76695 | 28676 ft | 455 kts | 138° |
| 2026-04-22 05:36 | 24.59130 | -109.74203 | 28207 ft | 451 kts | 138° |
| 2026-04-22 05:36 | 24.56959 | -109.71737 | 27728 ft | 448 kts | 138° |
| 2026-04-22 05:36 | 24.54802 | -109.69289 | 27281 ft | 444 kts | 138° |
| 2026-04-22 05:36 | 24.52689 | -109.66885 | 26832 ft | 442 kts | 138° |
| 2026-04-22 05:37 | 24.50566 | -109.64470 | 26379 ft | 439 kts | 138° |
| 2026-04-22 05:37 | 24.48446 | -109.62063 | 25929 ft | 437 kts | 138° |
| 2026-04-22 05:37 | 24.46335 | -109.59671 | 25446 ft | 436 kts | 138° |
| 2026-04-22 05:37 | 24.44230 | -109.57290 | 24996 ft | 434 kts | 138° |
| 2026-04-22 05:38 | 24.42132 | -109.54915 | 24620 ft | 431 kts | 138° |
| 2026-04-22 05:38 | 24.40050 | -109.52560 | 24067 ft | 426 kts | 138° |
| 2026-04-22 05:38 | 24.38049 | -109.50295 | 23535 ft | 411 kts | 138° |
| 2026-04-22 05:38 | 24.36101 | -109.48090 | 23053 ft | 393 kts | 138° |
| 2026-04-22 05:39 | 24.34150 | -109.46095 | 22617 ft | 377 kts | 149° |
| 2026-04-22 05:39 | 24.31910 | -109.44691 | 22177 ft | 367 kts | 163° |
| 2026-04-22 05:39 | 24.29494 | -109.43932 | 21759 ft | 356 kts | 177° |
| 2026-04-22 05:39 | 24.27060 | -109.43813 | 21358 ft | 346 kts | 190° |
| 2026-04-22 05:40 | 24.24725 | -109.44266 | 20969 ft | 338 kts | 198° |
| 2026-04-22 05:40 | 24.22445 | -109.44859 | 20581 ft | 335 kts | 198° |
| 2026-04-22 05:40 | 24.20181 | -109.45440 | 20201 ft | 333 kts | 198° |
| 2026-04-22 05:40 | 24.17960 | -109.46006 | 19813 ft | 331 kts | 197° |
| 2026-04-22 05:41 | 24.15723 | -109.46573 | 19427 ft | 329 kts | 197° |
| 2026-04-22 05:41 | 24.13496 | -109.47136 | 19046 ft | 328 kts | 197° |
| 2026-04-22 05:41 | 24.11279 | -109.47698 | 18618 ft | 328 kts | 197° |
| 2026-04-22 05:41 | 24.09059 | -109.48264 | 18188 ft | 327 kts | 197° |
| 2026-04-22 05:42 | 24.06848 | -109.48826 | 17770 ft | 325 kts | 197° |
| 2026-04-22 05:42 | 24.04658 | -109.49382 | 17388 ft | 322 kts | 197° |
| 2026-04-22 05:42 | 24.02488 | -109.49933 | 17013 ft | 319 kts | 197° |
| 2026-04-22 05:42 | 24.00366 | -109.50473 | 16643 ft | 316 kts | 197° |
| 2026-04-22 05:43 | 23.98236 | -109.51017 | 16270 ft | 313 kts | 197° |
| 2026-04-22 05:43 | 23.96121 | -109.51556 | 15906 ft | 311 kts | 196° |
| 2026-04-22 05:43 | 23.94018 | -109.52092 | 15535 ft | 309 kts | 196° |
| 2026-04-22 05:43 | 23.91931 | -109.52613 | 15171 ft | 308 kts | 193° |
| 2026-04-22 05:44 | 23.89796 | -109.52785 | 14847 ft | 308 kts | 180° |
| 2026-04-22 05:44 | 23.87645 | -109.52538 | 14728 ft | 314 kts | 177° |
| 2026-04-22 05:44 | 23.85469 | -109.52274 | 14578 ft | 315 kts | 177° |
| 2026-04-22 05:44 | 23.83286 | -109.52018 | 14416 ft | 315 kts | 177° |
| 2026-04-22 05:45 | 23.81112 | -109.51763 | 14258 ft | 314 kts | 177° |
| 2026-04-22 05:45 | 23.78970 | -109.51508 | 14098 ft | 313 kts | 177° |
| 2026-04-22 05:45 | 23.76805 | -109.51248 | 13939 ft | 313 kts | 177° |
| 2026-04-22 05:45 | 23.74646 | -109.50988 | 13771 ft | 312 kts | 177° |
| 2026-04-22 05:46 | 23.72495 | -109.50730 | 13600 ft | 312 kts | 177° |
| 2026-04-22 05:46 | 23.70338 | -109.50474 | 13449 ft | 312 kts | 177° |
| 2026-04-22 05:46 | 23.68182 | -109.50216 | 13292 ft | 311 kts | 177° |
| 2026-04-22 05:46 | 23.66031 | -109.49958 | 13134 ft | 311 kts | 177° |
| 2026-04-22 05:47 | 23.63885 | -109.49699 | 12963 ft | 310 kts | 177° |
| 2026-04-22 05:47 | 23.61747 | -109.49442 | 12814 ft | 309 kts | 177° |
| 2026-04-22 05:47 | 23.59638 | -109.49190 | 12659 ft | 308 kts | 177° |
| 2026-04-22 05:47 | 23.57508 | -109.48934 | 12508 ft | 308 kts | 177° |
| 2026-04-22 05:48 | 23.55382 | -109.48679 | 12350 ft | 307 kts | 177° |
| 2026-04-22 05:48 | 23.53260 | -109.48425 | 12189 ft | 306 kts | 177° |
| 2026-04-22 05:48 | 23.51147 | -109.48178 | 12038 ft | 305 kts | 179° |
| 2026-04-22 05:48 | 23.49049 | -109.48275 | 11843 ft | 301 kts | 193° |
| 2026-04-22 05:49 | 23.47022 | -109.48764 | 11524 ft | 297 kts | 195° |
| 2026-04-22 05:49 | 23.45025 | -109.49271 | 11289 ft | 291 kts | 195° |
| 2026-04-22 05:49 | 23.43053 | -109.49772 | 10940 ft | 290 kts | 195° |
| 2026-04-22 05:49 | 23.41125 | -109.50259 | 10662 ft | 287 kts | 195° |
| 2026-04-22 05:50 | 23.39190 | -109.50748 | 10382 ft | 284 kts | 195° |
| 2026-04-22 05:50 | 23.37269 | -109.51233 | 10101 ft | 283 kts | 195° |
| 2026-04-22 05:50 | 23.35357 | -109.51716 | 9807 ft | 281 kts | 195° |
| 2026-04-22 05:50 | 23.33463 | -109.52193 | 9522 ft | 279 kts | 195° |
| 2026-04-22 05:51 | 23.31573 | -109.52667 | 9248 ft | 278 kts | 195° |
| 2026-04-22 05:51 | 23.29692 | -109.53139 | 8975 ft | 277 kts | 195° |
| 2026-04-22 05:51 | 23.27814 | -109.53612 | 8700 ft | 276 kts | 195° |
| 2026-04-22 05:51 | 23.25970 | -109.54076 | 8433 ft | 275 kts | 194° |
| 2026-04-22 05:52 | 23.24105 | -109.54544 | 8159 ft | 274 kts | 194° |
| 2026-04-22 05:52 | 23.22252 | -109.55010 | 7888 ft | 273 kts | 194° |
| 2026-04-22 05:52 | 23.20402 | -109.55476 | 7619 ft | 272 kts | 194° |
| 2026-04-22 05:52 | 23.18557 | -109.55938 | 7348 ft | 271 kts | 194° |
| 2026-04-22 05:53 | 23.16722 | -109.56397 | 7084 ft | 270 kts | 194° |
| 2026-04-22 05:53 | 23.14891 | -109.56854 | 6808 ft | 269 kts | 194° |
| 2026-04-22 05:53 | 23.13068 | -109.57309 | 6541 ft | 268 kts | 193° |
| 2026-04-22 05:53 | 23.11254 | -109.57763 | 6287 ft | 266 kts | 193° |
| 2026-04-22 05:54 | 23.09518 | -109.58199 | 6164 ft | 252 kts | 194° |
| 2026-04-22 05:54 | 23.07865 | -109.58614 | 5964 ft | 236 kts | 193° |
| 2026-04-22 05:54 | 23.06296 | -109.59007 | 5537 ft | 230 kts | 193° |
| 2026-04-22 05:54 | 23.04735 | -109.59399 | 5301 ft | 232 kts | 193° |
| 2026-04-22 05:55 | 23.03163 | -109.59792 | 5068 ft | 231 kts | 193° |
| 2026-04-22 05:55 | 23.01637 | -109.60174 | 4914 ft | 219 kts | 193° |
| 2026-04-22 05:55 | 23.00201 | -109.60615 | 4675 ft | 211 kts | 204° |
| 2026-04-22 05:55 | 22.99034 | -109.61466 | 4437 ft | 202 kts | 223° |
| 2026-04-22 05:56 | 22.98206 | -109.62679 | 4207 ft | 201 kts | 242° |
| 2026-04-22 05:56 | 22.97793 | -109.64122 | 3981 ft | 202 kts | 261° |
| 2026-04-22 05:56 | 22.97651 | -109.65638 | 3763 ft | 201 kts | 262° |
| 2026-04-22 05:56 | 22.97507 | -109.67144 | 3532 ft | 200 kts | 262° |
| 2026-04-22 05:57 | 22.97508 | -109.68645 | 3319 ft | 201 kts | 284° |
| 2026-04-22 05:57 | 22.98294 | -109.69877 | 3103 ft | 204 kts | 323° |
| 2026-04-22 05:57 | 22.99638 | -109.70334 | 2905 ft | 206 kts | 353° |
| 2026-04-22 05:57 | 23.01059 | -109.70493 | 2687 ft | 204 kts | 354° |
| 2026-04-22 05:58 | 23.02443 | -109.70641 | 2478 ft | 201 kts | 354° |
| 2026-04-22 05:58 | 23.03779 | -109.70785 | 2283 ft | 181 kts | 354° |
| 2026-04-22 05:58 | 23.04954 | -109.70913 | 2106 ft | 160 kts | 354° |
| 2026-04-22 05:58 | 23.06025 | -109.71033 | 1924 ft | 151 kts | 354° |
| 2026-04-22 05:59 | 23.07052 | -109.71150 | 1717 ft | 147 kts | 355° |
| 2026-04-22 05:59 | 23.08062 | -109.71264 | 1509 ft | 145 kts | 354° |
| 2026-04-22 05:59 | 23.09067 | -109.71377 | 1313 ft | 145 kts | 354° |
| 2026-04-22 05:59 | 23.10066 | -109.71486 | 1124 ft | 144 kts | 354° |
| 2026-04-22 06:00 | 23.11052 | -109.71586 | 940 ft | 145 kts | 353° |
| 2026-04-22 06:00 | 23.12046 | -109.71708 | 741 ft | 143 kts | 351° |
| 2026-04-22 06:00 | 23.13040 | -109.71827 | 564 ft | 144 kts | 352° |
| 2026-04-22 06:00 | 23.14035 | -109.71941 | 407 ft | 144 kts | 352° |
| 2026-04-22 06:01 | 23.14946 | -109.72047 | 388 ft | 115 kts | 354° |
| 2026-04-22 06:01 | 23.15571 | -109.72121 | 387 ft | 61 kts | 355° |
| 2026-04-22 06:01 | 23.15819 | -109.72124 | 387 ft | 28 kts | 17° |
| 2026-04-22 06:01 | 23.15954 | -109.72063 | 387 ft | 10 kts | 23° |
| 2026-04-22 06:02 | 23.15994 | -109.72044 | 387 ft | 3 kts | 24° |
| 2026-04-22 06:02 | 23.16016 | -109.72033 | 387 ft | 5 kts | 24° |
| 2026-04-22 06:02 | 23.16049 | -109.72018 | 387 ft | 6 kts | 24° |
| 2026-04-22 06:02 | 23.16096 | -109.71993 | 387 ft | 8 kts | 31° |
| 2026-04-22 06:03 | 23.16134 | -109.71942 | 386 ft | 9 kts | 72° |
| 2026-04-22 06:03 | 23.16101 | -109.71890 | 386 ft | 10 kts | 158° |
| 2026-04-22 06:03 | 23.16043 | -109.71881 | 387 ft | 8 kts | 175° |
| 2026-04-22 06:03 | 23.15991 | -109.71876 | 387 ft | 8 kts | 174° |
| 2026-04-22 06:04 | 23.15932 | -109.71870 | 387 ft | 9 kts | 174° |
| 2026-04-22 06:04 | 23.15899 | -109.71842 | 387 ft | 6 kts | 91° |
| 2026-04-22 06:04 | 23.15901 | -109.71809 | 387 ft | 2 kts | 84° |
| 2026-04-22 06:04 | 23.15903 | -109.71796 | 386 ft | 2 kts | 84° |
| 2026-04-22 06:05 | 23.15903 | -109.71793 | 386 ft | 0 kts | 84° |